This is the latest recevied weather packets stored in our database for station/object KJ6HT. If no packets are shown the sender has not sent any weather packets the latest 1 day(s).
| Time | Temp. | Humidity | Pressure | Rain* | Wind** | Luminosity | Snow |
|---|---|---|---|---|---|---|---|
| 1778109306 | 25.56° C | 45% | 1013.8 hPa | 0 mm | - | - | - |
| 1778096731 | 22.78° C | 46% | 1016.3 hPa | 0 mm | - | - | - |
| 1778095842 | 22.78° C | 47% | 1016.5 hPa | 0 mm | - | - | - |
| 1778094925 | 22.22° C | 47% | 1016.7 hPa | 0 mm | - | - | - |
| 1778094023 | 21.11° C | 50% | 1016.9 hPa | 0 mm | - | - | - |
| 1778093120 | 20° C | 53% | 1017.1 hPa | 0 mm | - | - | - |
| 1778090417 | 20.56° C | 53% | 1017.5 hPa | 0 mm | - | - | - |
| 1778089515 | 19.44° C | 55% | 1017.4 hPa | 0 mm | - | - | - |
| 1778087716 | 19.44° C | 59% | 1017.6 hPa | 0 mm | - | - | - |
| 1778083203 | 16.67° C | 67% | 1017.7 hPa | 0 mm | - | - | - |
| 1778077842 | 13.33° C | 81% | 1017.8 hPa | 0 mm | - | - | - |
| 1778076038 | 12.78° C | 87% | 1017.8 hPa | 0 mm | - | - | - |
| 1778075136 | 11.11° C | 92% | 1017.7 hPa | 0 mm | - | - | - |
| 1778073334 | 9.44° C | 93% | 1017.2 hPa | 0 mm | - | - | - |
| 1778067922 | 9.44° C | 91% | 1016.7 hPa | 0 mm | - | - | - |
| 1778067016 | 10° C | 90% | 1016.7 hPa | 0 mm | - | - | - |
| 1778057156 | 11.67° C | 85% | 1016.7 hPa | 0 mm | - | - | - |
| 1778056254 | 12.22° C | 84% | 1016.9 hPa | 0 mm | - | - | - |
| 1778055358 | 12.22° C | 83% | 1016.9 hPa | 0 mm | - | - | - |
| 1778054459 | 12.22° C | 84% | 1016.9 hPa | 0 mm | - | - | - |
| 1778053552 | 12.22° C | 83% | 1016.9 hPa | 0 mm | - | - | - |
| 1778051747 | 12.22° C | 82% | 1016.9 hPa | 0 mm | - | - | - |
| 1778049941 | 13.33° C | 79% | 1016.7 hPa | 0 mm | - | - | - |
| 1778046335 | 13.89° C | 74% | 1016.1 hPa | 0 mm | - | - | - |
| 1778043631 | 15° C | 67% | 1015.7 hPa | 0 mm | - | - | - |
* Rain latest hour (hover to see other rain measurements)
** Current wind speed in m/s (hover to see current wind gust speed)